sensor_id;sensor_type;location;lat;lon;timestamp;pressure;altitude;pressure_sealevel;temperature;humidity
62025;BME280;47978;49.118;12.146;2024-03-23T00:54:23;96757.75;;;6.49;100.00
62025;BME280;47978;49.118;12.146;2024-03-23T00:58:24;96755.19;;;6.72;100.00
62025;BME280;47978;49.118;12.146;2024-03-23T01:02:24;96745.34;;;6.52;100.00
62025;BME280;47978;49.118;12.146;2024-03-23T01:06:25;96750.78;;;6.38;100.00
62025;BME280;47978;49.118;12.146;2024-03-23T01:10:27;96745.63;;;6.69;100.00
62025;BME280;47978;49.118;12.146;2024-03-23T01:14:27;96756.00;;;6.72;100.00
62025;BME280;47978;49.118;12.146;2024-03-23T01:18:28;96752.84;;;6.46;100.00
62025;BME280;47978;49.118;12.146;2024-03-23T01:22:28;96734.84;;;6.54;100.00
62025;BME280;47978;49.118;12.146;2024-03-23T01:26:30;96734.72;;;6.45;100.00
62025;BME280;47978;49.118;12.146;2024-03-23T01:30:31;96726.34;;;6.56;100.00
62025;BME280;47978;49.118;12.146;2024-03-23T01:34:32;96719.00;;;5.94;100.00
62025;BME280;47978;49.118;12.146;2024-03-23T01:38:32;96703.72;;;6.26;100.00
62025;BME280;47978;49.118;12.146;2024-03-23T01:42:34;96687.16;;;6.50;100.00
62025;BME280;47978;49.118;12.146;2024-03-23T01:46:35;96682.94;;;6.71;100.00
62025;BME280;47978;49.118;12.146;2024-03-23T01:50:37;96681.16;;;6.94;100.00
62025;BME280;47978;49.118;12.146;2024-03-23T01:54:38;96666.97;;;6.73;100.00
62025;BME280;47978;49.118;12.146;2024-03-23T01:58:40;96649.88;;;6.76;100.00
62025;BME280;47978;49.118;12.146;2024-03-23T02:02:42;96651.84;;;6.90;100.00
62025;BME280;47978;49.118;12.146;2024-03-23T02:06:43;96658.31;;;6.66;100.00
62025;BME280;47978;49.118;12.146;2024-03-23T02:10:44;96647.88;;;6.49;100.00
62025;BME280;47978;49.118;12.146;2024-03-23T02:14:46;96644.56;;;6.34;100.00
62025;BME280;47978;49.118;12.146;2024-03-23T02:18:46;96644.16;;;6.26;100.00
62025;BME280;47978;49.118;12.146;2024-03-23T02:22:52;96640.59;;;6.07;100.00
62025;BME280;47978;49.118;12.146;2024-03-23T02:26:53;96636.66;;;6.13;100.00
62025;BME280;47978;49.118;12.146;2024-03-23T02:30:53;96624.22;;;6.02;100.00
62025;BME280;47978;49.118;12.146;2024-03-23T02:34:54;96618.13;;;6.05;100.00
62025;BME280;47978;49.118;12.146;2024-03-23T02:38:56;96618.03;;;5.91;100.00
62025;BME280;47978;49.118;12.146;2024-03-23T02:48:00;96614.47;;;5.91;100.00
62025;BME280;47978;49.118;12.146;2024-03-23T02:52:01;96627.47;;;5.85;100.00
62025;BME280;47978;49.118;12.146;2024-03-23T02:56:03;96617.88;;;5.82;100.00
62025;BME280;47978;49.118;12.146;2024-03-23T03:00:05;96609.59;;;5.88;100.00
62025;BME280;47978;49.118;12.146;2024-03-23T03:04:05;96609.22;;;5.75;100.00
62025;BME280;47978;49.118;12.146;2024-03-23T03:08:06;96615.06;;;5.69;100.00
62025;BME280;47978;49.118;12.146;2024-03-23T03:12:08;96621.31;;;5.74;100.00
62025;BME280;47978;49.118;12.146;2024-03-23T03:16:09;96614.94;;;5.79;100.00
62025;BME280;47978;49.118;12.146;2024-03-23T03:20:10;96599.81;;;5.81;100.00
62025;BME280;47978;49.118;12.146;2024-03-23T03:24:10;96588.25;;;6.03;100.00
62025;BME280;47978;49.118;12.146;2024-03-23T03:28:12;96573.94;;;6.06;100.00
62025;BME280;47978;49.118;12.146;2024-03-23T03:32:13;96561.69;;;6.18;100.00
62025;BME280;47978;49.118;12.146;2024-03-23T03:36:13;96555.53;;;6.07;100.00
62025;BME280;47978;49.118;12.146;2024-03-23T03:40:14;96566.97;;;5.95;100.00
62025;BME280;47978;49.118;12.146;2024-03-23T03:44:16;96560.50;;;6.05;100.00
62025;BME280;47978;49.118;12.146;2024-03-23T03:48:17;96561.47;;;6.28;100.00
62025;BME280;47978;49.118;12.146;2024-03-23T03:52:17;96553.69;;;6.35;100.00
62025;BME280;47978;49.118;12.146;2024-03-23T03:56:18;96553.56;;;6.40;100.00
62025;BME280;47978;49.118;12.146;2024-03-23T04:00:20;96535.28;;;6.36;100.00
62025;BME280;47978;49.118;12.146;2024-03-23T04:04:20;96536.09;;;6.50;100.00
62025;BME280;47978;49.118;12.146;2024-03-23T04:08:21;96538.53;;;6.51;100.00
62025;BME280;47978;49.118;12.146;2024-03-23T04:12:23;96523.59;;;6.71;100.00
62025;BME280;47978;49.118;12.146;2024-03-23T04:16:29;96511.59;;;6.81;100.00
62025;BME280;47978;49.118;12.146;2024-03-23T04:20:29;96511.59;;;6.95;100.00
62025;BME280;47978;49.118;12.146;2024-03-23T04:24:30;96497.50;;;7.10;100.00
62025;BME280;47978;49.118;12.146;2024-03-23T04:28:30;96484.16;;;7.17;100.00
62025;BME280;47978;49.118;12.146;2024-03-23T04:32:32;96480.44;;;7.36;100.00
62025;BME280;47978;49.118;12.146;2024-03-23T04:36:33;96473.31;;;6.98;100.00
62025;BME280;47978;49.118;12.146;2024-03-23T04:40:33;96468.47;;;7.18;100.00
62025;BME280;47978;49.118;12.146;2024-03-23T04:44:34;96476.72;;;7.18;100.00
62025;BME280;47978;49.118;12.146;2024-03-23T04:48:36;96471.06;;;7.37;100.00
62025;BME280;47978;49.118;12.146;2024-03-23T04:52:36;96463.16;;;7.21;100.00
62025;BME280;47978;49.118;12.146;2024-03-23T04:56:37;96441.41;;;7.11;100.00
62025;BME280;47978;49.118;12.146;2024-03-23T05:00:38;96459.25;;;7.00;100.00
62025;BME280;47978;49.118;12.146;2024-03-23T05:04:40;96452.56;;;6.92;100.00
62025;BME280;47978;49.118;12.146;2024-03-23T05:08:40;96452.56;;;6.92;100.00
62025;BME280;47978;49.118;12.146;2024-03-23T05:12:41;96442.66;;;6.91;100.00
62025;BME280;47978;49.118;12.146;2024-03-23T05:16:41;96435.16;;;7.19;100.00
62025;BME280;47978;49.118;12.146;2024-03-23T05:20:43;96441.09;;;7.13;100.00
62025;BME280;47978;49.118;12.146;2024-03-23T05:24:44;96429.66;;;7.19;100.00
62025;BME280;47978;49.118;12.146;2024-03-23T05:28:45;96425.63;;;7.39;100.00
62025;BME280;47978;49.118;12.146;2024-03-23T05:32:46;96423.25;;;7.69;100.00
62025;BME280;47978;49.118;12.146;2024-03-23T05:36:48;96422.44;;;7.69;100.00
62025;BME280;47978;49.118;12.146;2024-03-23T05:40:53;96404.72;;;7.83;100.00
62025;BME280;47978;49.118;12.146;2024-03-23T05:44:53;96403.22;;;8.00;100.00
62025;BME280;47978;49.118;12.146;2024-03-23T05:49:01;96397.59;;;8.22;100.00
62025;BME280;47978;49.118;12.146;2024-03-23T05:53:03;96406.66;;;8.14;100.00
62025;BME280;47978;49.118;12.146;2024-03-23T05:57:04;96399.25;;;8.23;100.00
62025;BME280;47978;49.118;12.146;2024-03-23T06:01:05;96390.28;;;8.49;100.00
62025;BME280;47978;49.118;12.146;2024-03-23T06:05:06;96375.38;;;8.50;100.00
62025;BME280;47978;49.118;12.146;2024-03-23T06:09:08;96380.59;;;8.51;100.00
62025;BME280;47978;49.118;12.146;2024-03-23T06:13:09;96379.28;;;8.58;100.00
62025;BME280;47978;49.118;12.146;2024-03-23T06:17:09;96362.00;;;8.74;98.97
62025;BME280;47978;49.118;12.146;2024-03-23T06:21:13;96347.72;;;8.90;99.25
62025;BME280;47978;49.118;12.146;2024-03-23T06:25:15;96329.88;;;8.96;98.35
62025;BME280;47978;49.118;12.146;2024-03-23T06:29:15;96327.78;;;9.01;100.00
62025;BME280;47978;49.118;12.146;2024-03-23T06:33:16;96316.25;;;9.34;98.28
62025;BME280;47978;49.118;12.146;2024-03-23T06:37:17;96321.50;;;9.74;93.55
62025;BME280;47978;49.118;12.146;2024-03-23T06:41:19;96317.13;;;10.11;89.68
62025;BME280;47978;49.118;12.146;2024-03-23T06:45:19;96323.69;;;10.37;91.86
62025;BME280;47978;49.118;12.146;2024-03-23T06:49:20;96331.72;;;10.80;87.67
62025;BME280;47978;49.118;12.146;2024-03-23T06:53:21;96336.41;;;10.58;89.93
62025;BME280;47978;49.118;12.146;2024-03-23T06:57:22;96343.94;;;10.79;88.67
62025;BME280;47978;49.118;12.146;2024-03-23T07:01:23;96326.78;;;10.86;85.18
62025;BME280;47978;49.118;12.146;2024-03-23T07:05:24;96318.50;;;10.86;83.95
62025;BME280;47978;49.118;12.146;2024-03-23T07:09:24;96318.00;;;10.84;84.41
62025;BME280;47978;49.118;12.146;2024-03-23T07:13:26;96322.41;;;10.85;84.15
62025;BME280;47978;49.118;12.146;2024-03-23T07:17:27;96318.09;;;10.96;83.89
62025;BME280;47978;49.118;12.146;2024-03-23T07:21:27;96323.34;;;10.89;85.47
62025;BME280;47978;49.118;12.146;2024-03-23T07:25:28;96326.91;;;10.89;84.28
62025;BME280;47978;49.118;12.146;2024-03-23T07:29:30;96383.19;;;10.64;87.01
62025;BME280;47978;49.118;12.146;2024-03-23T07:33:31;96391.81;;;10.32;88.57
62025;BME280;47978;49.118;12.146;2024-03-23T07:37:31;96388.69;;;10.43;90.33
62025;BME280;47978;49.118;12.146;2024-03-23T07:41:32;96397.19;;;10.20;92.29
62025;BME280;47978;49.118;12.146;2024-03-23T07:45:34;96408.31;;;10.03;94.69
62025;BME280;47978;49.118;12.146;2024-03-23T07:49:34;96424.44;;;9.83;97.70
62025;BME280;47978;49.118;12.146;2024-03-23T07:53:36;96430.13;;;9.69;100.00
62025;BME280;47978;49.118;12.146;2024-03-23T07:57:37;96435.50;;;9.75;99.98
62025;BME280;47978;49.118;12.146;2024-03-23T08:01:39;96433.50;;;9.93;94.91
62025;BME280;47978;49.118;12.146;2024-03-23T08:05:39;96429.28;;;9.86;93.51
62025;BME280;47978;49.118;12.146;2024-03-23T08:09:40;96422.19;;;9.77;94.13
62025;BME280;47978;49.118;12.146;2024-03-23T08:13:42;96429.97;;;9.66;94.32
62025;BME280;47978;49.118;12.146;2024-03-23T08:17:44;96446.38;;;9.62;96.64
62025;BME280;47978;49.118;12.146;2024-03-23T08:21:44;96442.78;;;9.53;96.04
62025;BME280;47978;49.118;12.146;2024-03-23T08:25:45;96441.34;;;9.47;97.08
62025;BME280;47978;49.118;12.146;2024-03-23T08:29:45;96443.78;;;9.31;98.84
62025;BME280;47978;49.118;12.146;2024-03-23T08:33:47;96436.97;;;9.29;99.33
62025;BME280;47978;49.118;12.146;2024-03-23T08:37:48;96446.34;;;9.28;100.00
62025;BME280;47978;49.118;12.146;2024-03-23T08:41:50;96461.13;;;9.14;99.49
62025;BME280;47978;49.118;12.146;2024-03-23T08:45:51;96496.00;;;9.19;100.00
62025;BME280;47978;49.118;12.146;2024-03-23T08:49:53;96484.81;;;9.15;100.00
62025;BME280;47978;49.118;12.146;2024-03-23T08:53:53;96481.91;;;9.20;100.00
62025;BME280;47978;49.118;12.146;2024-03-23T08:57:54;96478.34;;;9.20;100.00
62025;BME280;47978;49.118;12.146;2024-03-23T09:01:55;96476.91;;;9.31;100.00
62025;BME280;47978;49.118;12.146;2024-03-23T09:05:57;96485.81;;;9.37;99.98
62025;BME280;47978;49.118;12.146;2024-03-23T09:09:58;96491.50;;;9.58;99.43
62025;BME280;47978;49.118;12.146;2024-03-23T09:13:58;96490.38;;;9.76;98.65
62025;BME280;47978;49.118;12.146;2024-03-23T09:17:59;96498.81;;;9.97;97.20
62025;BME280;47978;49.118;12.146;2024-03-23T09:22:01;96515.69;;;9.87;96.96
62025;BME280;47978;49.118;12.146;2024-03-23T09:26:02;96516.84;;;9.77;94.38
62025;BME280;47978;49.118;12.146;2024-03-23T09:30:04;96530.31;;;9.70;93.16
62025;BME280;47978;49.118;12.146;2024-03-23T09:34:05;96537.31;;;9.76;93.78
62025;BME280;47978;49.118;12.146;2024-03-23T09:38:07;96517.97;;;9.94;92.22
62025;BME280;47978;49.118;12.146;2024-03-23T09:42:07;96505.91;;;10.16;90.10
62025;BME280;47978;49.118;12.146;2024-03-23T09:46:08;96514.69;;;10.26;90.48
62025;BME280;47978;49.118;12.146;2024-03-23T09:50:09;96509.34;;;10.12;90.19
62025;BME280;47978;49.118;12.146;2024-03-23T09:54:11;96534.84;;;10.01;90.12
62025;BME280;47978;49.118;12.146;2024-03-23T09:58:12;96553.69;;;9.81;92.82
62025;BME280;47978;49.118;12.146;2024-03-23T10:02:13;96554.19;;;9.83;96.03
62025;BME280;47978;49.118;12.146;2024-03-23T10:06:21;96579.69;;;9.72;90.31
62025;BME280;47978;49.118;12.146;2024-03-23T10:10:24;96572.56;;;9.79;90.77
62025;BME280;47978;49.118;12.146;2024-03-23T10:14:29;96588.13;;;9.66;88.97
62025;BME280;47978;49.118;12.146;2024-03-23T10:18:29;96591.88;;;9.79;87.56
62025;BME280;47978;49.118;12.146;2024-03-23T10:22:36;96628.53;;;9.54;83.64
62025;BME280;47978;49.118;12.146;2024-03-23T10:26:39;96655.66;;;9.60;83.13
62025;BME280;47978;49.118;12.146;2024-03-23T10:30:39;96658.72;;;9.59;79.12
62025;BME280;47978;49.118;12.146;2024-03-23T10:34:40;96678.41;;;9.66;79.45
62025;BME280;47978;49.118;12.146;2024-03-23T10:38:41;96685.66;;;9.53;79.55
62025;BME280;47978;49.118;12.146;2024-03-23T10:42:44;96688.97;;;9.73;76.81
62025;BME280;47978;49.118;12.146;2024-03-23T10:46:45;96672.44;;;9.99;75.95
62025;BME280;47978;49.118;12.146;2024-03-23T10:50:45;96679.38;;;10.36;73.77
62025;BME280;47978;49.118;12.146;2024-03-23T10:54:47;96675.72;;;10.18;75.26
62025;BME280;47978;49.118;12.146;2024-03-23T10:58:51;96678.59;;;9.30;73.57
62025;BME280;47978;49.118;12.146;2024-03-23T11:02:52;96671.88;;;9.62;73.74
62025;BME280;47978;49.118;12.146;2024-03-23T11:06:52;96687.28;;;9.45;74.05
62025;BME280;47978;49.118;12.146;2024-03-23T11:10:53;96694.19;;;9.34;73.83
62025;BME280;47978;49.118;12.146;2024-03-23T11:14:57;96681.31;;;9.21;74.66
62025;BME280;47978;49.118;12.146;2024-03-23T11:19:33;96695.53;;;8.83;75.96
62025;BME280;47978;49.118;12.146;2024-03-23T11:23:34;96685.06;;;8.94;75.45
62025;BME280;47978;49.118;12.146;2024-03-23T11:27:34;96667.84;;;8.88;73.41
62025;BME280;47978;49.118;12.146;2024-03-23T11:31:37;96694.31;;;8.98;71.96
62025;BME280;47978;49.118;12.146;2024-03-23T11:35:38;96708.50;;;9.05;70.92
62025;BME280;47978;49.118;12.146;2024-03-23T11:39:39;96712.06;;;9.06;69.68
62025;BME280;47978;49.118;12.146;2024-03-23T11:43:40;96718.47;;;9.23;69.12
62025;BME280;47978;49.118;12.146;2024-03-23T11:47:42;96739.38;;;9.47;68.04
62025;BME280;47978;49.118;12.146;2024-03-23T11:51:43;96754.56;;;9.67;67.95
62025;BME280;47978;49.118;12.146;2024-03-23T11:55:48;96778.41;;;9.32;68.09
62025;BME280;47978;49.118;12.146;2024-03-23T11:59:49;96776.53;;;9.18;69.11
62025;BME280;47978;49.118;12.146;2024-03-23T12:03:50;96784.13;;;9.13;71.33
62025;BME280;47978;49.118;12.146;2024-03-23T12:07:51;96799.91;;;8.76;69.51
62025;BME280;47978;49.118;12.146;2024-03-23T12:11:52;96806.91;;;8.60;71.61
62025;BME280;47978;49.118;12.146;2024-03-23T12:15:52;96798.84;;;8.63;72.38
62025;BME280;47978;49.118;12.146;2024-03-23T12:19:54;96783.44;;;8.85;69.39
62025;BME280;47978;49.118;12.146;2024-03-23T12:23:55;96774.06;;;8.86;69.83
62025;BME280;47978;49.118;12.146;2024-03-23T12:27:58;96735.88;;;9.33;67.57
62025;BME280;47978;49.118;12.146;2024-03-23T12:31:59;96715.41;;;9.56;65.51
62025;BME280;47978;49.118;12.146;2024-03-23T12:36:02;96732.19;;;9.77;64.99
62025;BME280;47978;49.118;12.146;2024-03-23T12:40:03;96756.41;;;9.18;66.86
62025;BME280;47978;49.118;12.146;2024-03-23T12:44:04;96777.09;;;8.84;66.65
62025;BME280;47978;49.118;12.146;2024-03-23T12:48:05;96776.63;;;8.46;68.55
62025;BME280;47978;49.118;12.146;2024-03-23T12:52:07;96811.28;;;7.50;78.00
62025;BME280;47978;49.118;12.146;2024-03-23T12:56:11;96782.97;;;7.50;83.63
62025;BME280;47978;49.118;12.146;2024-03-23T13:00:13;96796.25;;;7.75;86.59
62025;BME280;47978;49.118;12.146;2024-03-23T13:04:14;96785.97;;;8.08;85.46
62025;BME280;47978;49.118;12.146;2024-03-23T13:08:16;96768.19;;;8.15;85.15
62025;BME280;47978;49.118;12.146;2024-03-23T13:12:16;96756.31;;;8.28;83.46
62025;BME280;47978;49.118;12.146;2024-03-23T13:16:17;96749.72;;;8.29;82.05
62025;BME280;47978;49.118;12.146;2024-03-23T13:20:17;96748.34;;;8.54;75.79
62025;BME280;47978;49.118;12.146;2024-03-23T13:24:21;96751.41;;;8.52;73.41
62025;BME280;47978;49.118;12.146;2024-03-23T13:28:22;96765.75;;;8.63;72.93
62025;BME280;47978;49.118;12.146;2024-03-23T13:32:23;96749.09;;;8.68;71.12
62025;BME280;47978;49.118;12.146;2024-03-23T13:36:24;96752.91;;;8.59;71.26
62025;BME280;47978;49.118;12.146;2024-03-23T13:40:25;96767.13;;;8.52;66.90
62025;BME280;47978;49.118;12.146;2024-03-23T13:44:26;96755.78;;;8.53;65.14
62025;BME280;47978;49.118;12.146;2024-03-23T13:48:27;96754.41;;;8.65;64.07
62025;BME280;47978;49.118;12.146;2024-03-23T13:52:28;96754.78;;;8.49;62.78
62025;BME280;47978;49.118;12.146;2024-03-23T13:56:30;96768.94;;;8.56;61.50
62025;BME280;47978;49.118;12.146;2024-03-23T14:00:30;96770.66;;;8.89;62.77
62025;BME280;47978;49.118;12.146;2024-03-23T14:04:31;96765.91;;;8.81;60.71
62025;BME280;47978;49.118;12.146;2024-03-23T14:08:31;96766.03;;;8.98;59.33
62025;BME280;47978;49.118;12.146;2024-03-23T14:12:33;96761.25;;;8.90;60.96
62025;BME280;47978;49.118;12.146;2024-03-23T14:16:34;96745.97;;;9.06;60.36
62025;BME280;47978;49.118;12.146;2024-03-23T14:20:34;96758.25;;;9.00;60.47
62025;BME280;47978;49.118;12.146;2024-03-23T14:24:35;96760.00;;;8.96;59.21
62025;BME280;47978;49.118;12.146;2024-03-23T14:28:37;96748.59;;;8.89;59.81
62025;BME280;47978;49.118;12.146;2024-03-23T14:32:38;96757.63;;;8.81;58.05
62025;BME280;47978;49.118;12.146;2024-03-23T14:36:38;96758.00;;;8.65;58.65
62025;BME280;47978;49.118;12.146;2024-03-23T14:40:39;96766.13;;;8.70;59.01
62025;BME280;47978;49.118;12.146;2024-03-23T14:44:41;96753.09;;;8.62;58.06
62025;BME280;47978;49.118;12.146;2024-03-23T14:48:42;96740.41;;;8.75;58.87
62025;BME280;47978;49.118;12.146;2024-03-23T14:52:44;96733.25;;;8.74;61.11
62025;BME280;47978;49.118;12.146;2024-03-23T14:56:44;96745.47;;;8.82;58.41
62025;BME280;47978;49.118;12.146;2024-03-23T15:00:46;96742.91;;;8.85;58.84
62025;BME280;47978;49.118;12.146;2024-03-23T15:04:47;96735.38;;;8.54;58.41
62025;BME280;47978;49.118;12.146;2024-03-23T15:08:47;96743.53;;;8.60;59.12
62025;BME280;47978;49.118;12.146;2024-03-23T15:12:48;96732.84;;;8.44;58.37
62025;BME280;47978;49.118;12.146;2024-03-23T15:16:50;96724.59;;;8.44;58.89
62025;BME280;47978;49.118;12.146;2024-03-23T15:20:54;96730.75;;;8.64;58.65
62025;BME280;47978;49.118;12.146;2024-03-23T15:24:54;96719.16;;;8.53;58.81
62025;BME280;47978;49.118;12.146;2024-03-23T15:28:55;96709.44;;;8.78;56.69
62025;BME280;47978;49.118;12.146;2024-03-23T15:32:57;96711.34;;;9.22;57.25
62025;BME280;47978;49.118;12.146;2024-03-23T15:36:57;96705.00;;;9.22;55.83
62025;BME280;47978;49.118;12.146;2024-03-23T15:40:58;96714.66;;;9.42;55.06
62025;BME280;47978;49.118;12.146;2024-03-23T15:44:59;96713.78;;;9.24;56.13
62025;BME280;47978;49.118;12.146;2024-03-23T15:49:01;96708.34;;;9.41;55.47
62025;BME280;47978;49.118;12.146;2024-03-23T15:53:01;96709.50;;;9.49;56.65
62025;BME280;47978;49.118;12.146;2024-03-23T15:57:02;96711.91;;;9.42;56.60
62025;BME280;47978;49.118;12.146;2024-03-23T16:01:04;96706.63;;;9.23;57.19
62025;BME280;47978;49.118;12.146;2024-03-23T16:05:06;96697.69;;;9.17;58.25
62025;BME280;47978;49.118;12.146;2024-03-23T16:09:07;96695.31;;;9.02;57.99
62025;BME280;47978;49.118;12.146;2024-03-23T16:13:08;96683.13;;;8.94;57.06
62025;BME280;47978;49.118;12.146;2024-03-23T16:17:08;96669.72;;;8.79;57.42
62025;BME280;47978;49.118;12.146;2024-03-23T16:21:10;96667.69;;;8.40;57.15
62025;BME280;47978;49.118;12.146;2024-03-23T16:25:11;96673.88;;;8.45;59.78
62025;BME280;47978;49.118;12.146;2024-03-23T16:29:12;96685.91;;;8.49;61.11
62025;BME280;47978;49.118;12.146;2024-03-23T16:33:12;96692.78;;;8.24;61.95
62025;BME280;47978;49.118;12.146;2024-03-23T16:37:14;96732.22;;;7.97;65.01
62025;BME280;47978;49.118;12.146;2024-03-23T16:41:15;96808.84;;;6.07;81.45
62025;BME280;47978;49.118;12.146;2024-03-23T16:45:16;96820.28;;;5.67;93.49
62025;BME280;47978;49.118;12.146;2024-03-23T16:49:17;96808.66;;;5.22;98.51
62025;BME280;47978;49.118;12.146;2024-03-23T16:53:19;96781.28;;;5.16;99.25
62025;BME280;47978;49.118;12.146;2024-03-23T16:57:20;96796.69;;;5.66;97.77
62025;BME280;47978;49.118;12.146;2024-03-23T17:01:20;96792.75;;;5.72;98.57
62025;BME280;47978;49.118;12.146;2024-03-23T17:05:21;96795.91;;;5.60;97.10
62025;BME280;47978;49.118;12.146;2024-03-23T17:09:23;96816.94;;;5.70;98.33
62025;BME280;47978;49.118;12.146;2024-03-23T17:13:24;96834.75;;;5.43;100.00
62025;BME280;47978;49.118;12.146;2024-03-23T17:17:24;96837.03;;;5.36;100.00
62025;BME280;47978;49.118;12.146;2024-03-23T17:21:27;96842.91;;;5.24;100.00
62025;BME280;47978;49.118;12.146;2024-03-23T17:25:29;96837.19;;;5.50;100.00
62025;BME280;47978;49.118;12.146;2024-03-23T17:29:29;96842.06;;;5.53;100.00
62025;BME280;47978;49.118;12.146;2024-03-23T17:33:30;96842.59;;;5.55;100.00
62025;BME280;47978;49.118;12.146;2024-03-23T17:37:31;96843.28;;;5.12;100.00
62025;BME280;47978;49.118;12.146;2024-03-23T17:41:32;96836.22;;;5.35;100.00
62025;BME280;47978;49.118;12.146;2024-03-23T17:45:33;96842.94;;;5.48;100.00
62025;BME280;47978;49.118;12.146;2024-03-23T17:49:34;96835.38;;;5.64;99.47
62025;BME280;47978;49.118;12.146;2024-03-23T17:53:38;96838.22;;;5.54;99.69
62025;BME280;47978;49.118;12.146;2024-03-23T17:57:40;96835.38;;;5.64;100.00
62025;BME280;47978;49.118;12.146;2024-03-23T18:01:40;96841.50;;;5.27;100.00
62025;BME280;47978;49.118;12.146;2024-03-23T18:05:41;96849.88;;;5.06;100.00
62025;BME280;47978;49.118;12.146;2024-03-23T18:09:41;96859.19;;;5.10;100.00
62025;BME280;47978;49.118;12.146;2024-03-23T18:13:43;96854.53;;;4.71;100.00
62025;BME280;47978;49.118;12.146;2024-03-23T18:17:44;96862.28;;;4.59;100.00
62025;BME280;47978;49.118;12.146;2024-03-23T18:21:45;96860.81;;;4.27;100.00
62025;BME280;47978;49.118;12.146;2024-03-23T18:25:50;96868.44;;;4.36;100.00
62025;BME280;47978;49.118;12.146;2024-03-23T18:29:52;96870.94;;;4.27;100.00
62025;BME280;47978;49.118;12.146;2024-03-23T18:33:53;96867.47;;;4.01;100.00
62025;BME280;47978;49.118;12.146;2024-03-23T18:37:53;96861.56;;;3.73;100.00
62025;BME280;47978;49.118;12.146;2024-03-23T18:41:54;96861.63;;;3.37;100.00
62025;BME280;47978;49.118;12.146;2024-03-23T18:45:56;96862.69;;;3.57;100.00
62025;BME280;47978;49.118;12.146;2024-03-23T18:49:56;96860.72;;;3.83;100.00
62025;BME280;47978;49.118;12.146;2024-03-23T18:53:57;96860.16;;;3.86;100.00
62025;BME280;47978;49.118;12.146;2024-03-23T18:57:59;96865.94;;;3.79;100.00
62025;BME280;47978;49.118;12.146;2024-03-23T19:02:01;96856.41;;;3.51;100.00
62025;BME280;47978;49.118;12.146;2024-03-23T19:06:02;96854.53;;;3.31;100.00
62025;BME280;47978;49.118;12.146;2024-03-23T19:10:03;96860.56;;;3.13;100.00
62025;BME280;47978;49.118;12.146;2024-03-23T19:14:04;96861.66;;;2.91;100.00
62025;BME280;47978;49.118;12.146;2024-03-23T19:18:06;96866.53;;;2.59;100.00
62025;BME280;47978;49.118;12.146;2024-03-23T19:22:06;96860.25;;;2.58;100.00
62025;BME280;47978;49.118;12.146;2024-03-23T19:26:07;96852.91;;;2.64;100.00
62025;BME280;47978;49.118;12.146;2024-03-23T19:30:08;96858.34;;;2.64;100.00
62025;BME280;47978;49.118;12.146;2024-03-23T19:34:10;96860.47;;;2.26;100.00
62025;BME280;47978;49.118;12.146;2024-03-23T19:38:11;96853.94;;;2.37;100.00
62025;BME280;47978;49.118;12.146;2024-03-23T19:42:11;96854.50;;;2.34;100.00
62025;BME280;47978;49.118;12.146;2024-03-23T19:46:12;96847.19;;;2.70;100.00
62025;BME280;47978;49.118;12.146;2024-03-23T19:50:14;96841.16;;;2.68;100.00
62025;BME280;47978;49.118;12.146;2024-03-23T19:54:14;96837.38;;;2.80;100.00
62025;BME280;47978;49.118;12.146;2024-03-23T19:58:15;96834.63;;;2.80;100.00
62025;BME280;47978;49.118;12.146;2024-03-23T20:02:15;96841.44;;;2.72;100.00
62025;BME280;47978;49.118;12.146;2024-03-23T20:06:18;96845.25;;;2.51;100.00
62025;BME280;47978;49.118;12.146;2024-03-23T20:10:18;96855.31;;;2.50;100.00
62025;BME280;47978;49.118;12.146;2024-03-23T20:14:19;96852.56;;;2.35;100.00
62025;BME280;47978;49.118;12.146;2024-03-23T20:18:20;96851.25;;;2.58;100.00
62025;BME280;47978;49.118;12.146;2024-03-23T20:22:22;96843.06;;;2.42;100.00
62025;BME280;47978;49.118;12.146;2024-03-23T20:26:22;96853.44;;;2.66;100.00
62025;BME280;47978;49.118;12.146;2024-03-23T20:30:23;96840.34;;;2.99;100.00
62025;BME280;47978;49.118;12.146;2024-03-23T20:34:24;96839.81;;;3.02;100.00
62025;BME280;47978;49.118;12.146;2024-03-23T20:38:26;96828.84;;;3.43;100.00
62025;BME280;47978;49.118;12.146;2024-03-23T20:42:26;96834.25;;;3.68;100.00
62025;BME280;47978;49.118;12.146;2024-03-23T20:46:27;96828.75;;;3.73;100.00
62025;BME280;47978;49.118;12.146;2024-03-23T20:50:27;96831.19;;;3.75;100.00
62025;BME280;47978;49.118;12.146;2024-03-23T20:54:29;96830.63;;;3.83;100.00
62025;BME280;47978;49.118;12.146;2024-03-23T20:58:31;96828.72;;;3.78;100.00
62025;BME280;47978;49.118;12.146;2024-03-23T21:02:32;96824.34;;;3.77;100.00
62025;BME280;47978;49.118;12.146;2024-03-23T21:06:32;96822.72;;;3.76;100.00
62025;BME280;47978;49.118;12.146;2024-03-23T21:10:34;96820.84;;;3.67;100.00
62025;BME280;47978;49.118;12.146;2024-03-23T21:14:35;96826.06;;;3.58;100.00
62025;BME280;47978;49.118;12.146;2024-03-23T21:18:36;96823.91;;;3.45;100.00
62025;BME280;47978;49.118;12.146;2024-03-23T21:22:36;96822.81;;;3.56;100.00
62025;BME280;47978;49.118;12.146;2024-03-23T21:26:38;96818.16;;;3.41;100.00
62025;BME280;47978;49.118;12.146;2024-03-23T21:30:39;96814.59;;;3.56;100.00
62025;BME280;47978;49.118;12.146;2024-03-23T21:34:39;96810.81;;;3.42;100.00
62025;BME280;47978;49.118;12.146;2024-03-23T21:38:40;96817.34;;;3.56;100.00
62025;BME280;47978;49.118;12.146;2024-03-23T21:42:42;96819.53;;;3.49;100.00
62025;BME280;47978;49.118;12.146;2024-03-23T21:46:42;96818.66;;;3.58;100.00
62025;BME280;47978;49.118;12.146;2024-03-23T21:50:43;96823.31;;;3.53;100.00
62025;BME280;47978;49.118;12.146;2024-03-23T21:54:44;96826.63;;;3.55;100.00
62025;BME280;47978;49.118;12.146;2024-03-23T21:58:45;96834.31;;;3.43;100.00
62025;BME280;47978;49.118;12.146;2024-03-23T22:02:46;96823.94;;;3.40;100.00
62025;BME280;47978;49.118;12.146;2024-03-23T22:06:47;96835.38;;;3.47;100.00